Time;durP1;ratioP1;P1;durP2;ratioP2;P2;SDS_P1;SDS_P2;PMS_P1;PMS_P2;Temp;Humidity;BMP_temperature;BMP_pressure;BME280_temperature;BME280_humidity;BME280_pressure;Samples;Min_cycle;Max_cycle;Signal;HPM_P1;HPM_P2
2023/09/19 00:01:57;;;;;;;6.30;3.47;;;;;;;14.85;66.89;95185.41;5038499;28;20508;-77
2023/09/19 00:04:28;;;;;;;5.13;3.25;;;;;;;14.99;66.80;95187.59;5055042;28;20041;-78
2023/09/19 00:06:54;;;;;;;4.47;3.28;;;;;;;15.06;66.39;95185.19;5071571;28;20028;-78
2023/09/19 00:09:19;;;;;;;4.68;3.50;;;;;;;14.93;66.85;95186.38;5072570;28;20041;-78
2023/09/19 00:11:47;;;;;;;4.78;3.03;;;;;;;14.89;66.70;95168.50;5072685;28;20529;-79
2023/09/19 00:14:13;;;;;;;4.68;3.13;;;;;;;14.93;66.81;95177.69;5071613;28;20115;-78
2023/09/19 00:16:40;;;;;;;4.38;3.35;;;;;;;14.84;67.18;95186.41;5071599;28;20021;-78
2023/09/19 00:19:07;;;;;;;5.72;3.55;;;;;;;14.65;67.25;95161.97;5038481;28;20521;-78
2023/09/19 00:21:32;;;;;;;4.80;3.70;;;;;;;14.85;67.14;95182.81;5054725;28;20024;-77
2023/09/19 00:23:58;;;;;;;5.75;3.50;;;;;;;15.02;66.63;95179.44;5054210;28;20388;-78
2023/09/19 00:26:23;;;;;;;6.20;3.55;;;;;;;14.84;66.88;95170.72;5054515;28;20031;-79
2023/09/19 00:28:52;;;;;;;4.15;3.30;;;;;;;14.78;67.25;95177.34;5070845;28;20039;-78
2023/09/19 00:31:18;;;;;;;3.80;3.08;;;;;;;14.83;67.18;95175.13;5054770;28;20529;-78
2023/09/19 00:33:43;;;;;;;5.80;3.33;;;;;;;14.70;67.83;95164.16;5054387;28;20278;-78
2023/09/19 00:36:08;;;;;;;5.78;3.47;;;;;;;14.64;67.62;95149.06;5037772;28;20024;-78
2023/09/19 00:38:34;;;;;;;6.25;3.60;;;;;;;14.81;67.44;95171.00;5070754;28;20024;-78
2023/09/19 00:41:02;;;;;;;6.18;4.28;;;;;;;14.78;67.26;95155.59;5054132;28;20080;-78
2023/09/19 00:43:29;;;;;;;5.93;3.47;;;;;;;14.77;67.44;95153.97;5038103;28;20524;-78
2023/09/19 00:45:55;;;;;;;8.00;3.33;;;;;;;14.88;67.43;95162.44;5070490;28;20089;-78
2023/09/19 00:48:21;;;;;;;5.60;3.40;;;;;;;14.87;67.48;95170.41;5070626;28;20127;-79
2023/09/19 00:50:47;;;;;;;4.80;3.40;;;;;;;15.00;67.28;95170.09;5037207;28;20050;-79
2023/09/19 00:53:14;;;;;;;4.45;3.38;;;;;;;15.00;67.18;95160.44;5053994;28;20041;-77
2023/09/19 00:55:42;;;;;;;6.63;3.70;;;;;;;15.01;67.34;95159.47;5054025;28;20028;-78
2023/09/19 00:58:07;;;;;;;4.90;3.28;;;;;;;14.90;67.78;95154.44;5053984;28;20017;-78
2023/09/19 01:00:33;;;;;;;6.18;3.60;;;;;;;14.96;67.62;95149.47;5053892;28;20036;-78
2023/09/19 01:03:01;;;;;;;5.50;3.30;;;;;;;14.98;67.26;95155.34;5053777;28;20526;-78
2023/09/19 01:05:26;;;;;;;4.90;3.30;;;;;;;14.87;67.97;95152.09;5071854;28;20449;-78
2023/09/19 01:07:53;;;;;;;5.07;3.80;;;;;;;14.81;67.78;95144.84;5037017;28;20040;-78
2023/09/19 01:10:21;;;;;;;5.13;3.47;;;;;;;14.88;67.77;95157.22;5037251;28;20113;-78
2023/09/19 01:13:21;;;;;;;4.85;3.70;;;;;;;14.91;68.04;95158.72;5053595;28;20158;-79
2023/09/19 01:16:15;;;;;;;5.25;3.40;;;;;;;14.68;68.72;95158.25;5070335;28;20533;-79
2023/09/19 01:18:52;;;;;;;4.70;3.80;;;;;;;14.57;69.00;95153.19;5056629;28;20032;-78
2023/09/19 01:21:43;;;;;;;4.32;3.65;;;;;;;14.64;68.99;95160.31;5070255;28;20107;-79
2023/09/19 01:24:27;;;;;;;4.57;3.40;;;;;;;14.58;68.99;95150.44;5051230;28;20076;-78
2023/09/19 01:26:55;;;;;;;4.70;3.70;;;;;;;14.62;68.85;95164.03;5071239;28;20043;-78
2023/09/19 01:29:39;;;;;;;7.50;3.90;;;;;;;14.55;69.18;95145.50;5070013;28;20086;-78
2023/09/19 01:32:05;;;;;;;7.18;3.38;;;;;;;14.55;69.25;95149.91;5070139;28;20032;-78
2023/09/19 01:34:57;;;;;;;4.53;3.40;;;;;;;14.65;69.14;95155.91;5053436;28;20506;-78
2023/09/19 01:37:26;;;;;;;7.03;3.88;;;;;;;14.47;69.72;95156.63;5059088;28;20399;-78
2023/09/19 01:39:54;;;;;;;4.53;3.53;;;;;;;14.45;69.97;95157.75;5053777;28;20028;-78
2023/09/19 01:42:35;;;;;;;4.85;3.53;;;;;;;14.51;69.46;95154.56;5069924;28;20033;-78
2023/09/19 01:45:27;;;;;;;7.88;3.65;;;;;;;14.35;69.61;95128.19;5052698;28;20127;-78
2023/09/19 01:47:56;;;;;;;3.88;3.10;;;;;;;14.78;69.09;95150.38;5025391;28;20051;-78
2023/09/19 01:50:40;;;;;;;4.07;3.47;;;;;;;14.61;69.11;95131.84;5053439;28;20048;-79
2023/09/19 01:53:36;;;;;;;5.10;3.60;;;;;;;14.63;69.45;95145.63;5069776;28;20119;-78
2023/09/19 01:56:03;;;;;;;5.00;3.47;;;;;;;14.53;69.42;95143.03;5032679;28;20028;-79
2023/09/19 01:58:42;;;;;;;6.15;3.88;;;;;;;14.51;69.67;95144.09;5052960;28;20017;-79
2023/09/19 02:01:08;;;;;;;4.00;3.30;;;;;;;14.57;69.71;95142.72;5053509;28;20032;-80
2023/09/19 02:03:34;;;;;;;5.50;3.60;;;;;;;14.68;69.19;95143.41;5052655;28;20086;-79
2023/09/19 02:05:59;;;;;;;4.60;3.40;;;;;;;14.78;68.52;95147.75;5052910;28;20035;-79
2023/09/19 02:08:25;;;;;;;5.32;3.60;;;;;;;14.73;68.52;95154.22;5035752;28;20036;-79
2023/09/19 02:10:51;;;;;;;4.97;3.35;;;;;;;14.60;69.09;95152.91;5052880;28;20029;-80
2023/09/19 02:13:19;;;;;;;5.60;3.95;;;;;;;14.39;69.30;95151.28;5069610;28;20222;-79
2023/09/19 02:15:44;;;;;;;3.92;3.40;;;;;;;14.33;69.84;95146.66;5052814;28;20066;-79
2023/09/19 02:18:11;;;;;;;3.95;3.50;;;;;;;14.41;69.87;95154.59;5052895;28;20108;-80
2023/09/19 02:20:37;;;;;;;7.50;3.65;;;;;;;14.26;70.12;95150.78;5069629;28;20036;-79
2023/09/19 02:23:02;;;;;;;4.75;3.30;;;;;;;14.36;69.84;95156.81;5069305;28;20437;-79
2023/09/19 02:25:28;;;;;;;4.57;3.47;;;;;;;14.36;69.88;95150.75;5052375;28;20052;-80
2023/09/19 02:27:54;;;;;;;4.82;3.63;;;;;;;14.45;69.71;95157.75;5069460;28;20078;-80
2023/09/19 02:30:22;;;;;;;6.30;3.55;;;;;;;14.42;69.78;95160.66;5069357;28;20029;-80
2023/09/19 02:32:49;;;;;;;4.55;3.42;;;;;;;14.37;70.36;95161.06;5036881;28;20490;-79
2023/09/19 02:35:16;;;;;;;5.22;3.60;;;;;;;14.29;70.11;95156.56;5036031;28;20032;-79
2023/09/19 02:37:41;;;;;;;4.57;3.22;;;;;;;14.18;70.45;95153.25;5052833;28;20048;-79
2023/09/19 02:40:18;;;;;;;4.22;3.10;;;;;;;14.02;70.77;95136.41;5069261;28;20503;-80
2023/09/19 02:42:46;;;;;;;5.03;3.58;;;;;;;14.21;70.60;95140.78;5069125;28;20024;-79
2023/09/19 02:45:12;;;;;;;4.68;3.38;;;;;;;13.90;71.76;95139.28;5052397;28;20510;-79
2023/09/19 02:47:40;;;;;;;6.72;3.70;;;;;;;14.07;71.27;95136.00;5069130;28;20029;-79
2023/09/19 02:50:05;;;;;;;4.55;3.90;;;;;;;13.78;72.20;95130.78;5052433;28;20044;-80
2023/09/19 02:52:31;;;;;;;5.18;3.80;;;;;;;13.68;72.56;95117.75;5069528;28;20399;-79
2023/09/19 02:54:57;;;;;;;7.45;3.97;;;;;;;13.72;72.61;95111.28;5068854;28;20025;-80
2023/09/19 02:57:24;;;;;;;4.70;3.95;;;;;;;13.70;72.99;95110.59;5069222;28;20021;-79
2023/09/19 02:59:49;;;;;;;4.63;3.55;;;;;;;13.71;72.67;95116.66;5052540;28;20032;-80
2023/09/19 03:02:15;;;;;;;4.82;3.63;;;;;;;13.64;73.14;95109.34;5069043;28;20036;-79
2023/09/19 03:04:41;;;;;;;5.10;3.60;;;;;;;13.73;73.10;95112.91;5035647;28;20510;-79
2023/09/19 03:07:06;;;;;;;4.20;3.80;;;;;;;13.72;72.77;95094.81;5052333;28;20043;-79
2023/09/19 03:09:32;;;;;;;6.00;3.50;;;;;;;13.75;72.76;95097.94;5051932;28;20039;-79
2023/09/19 03:11:58;;;;;;;6.47;3.50;;;;;;;13.86;72.31;95092.56;5069269;28;20028;-80
2023/09/19 03:14:23;;;;;;;4.30;3.20;;;;;;;13.90;72.17;95087.91;5035804;28;20479;-79
2023/09/19 03:16:49;;;;;;;5.63;3.33;;;;;;;13.81;72.49;95099.19;5052513;28;20020;-79
2023/09/19 03:19:15;;;;;;;5.25;3.45;;;;;;;13.79;72.43;95088.03;5068829;28;20047;-79
2023/09/19 03:21:40;;;;;;;5.32;3.40;;;;;;;14.03;71.54;95098.03;5072319;28;20036;-79
2023/09/19 03:24:06;;;;;;;4.72;3.83;;;;;;;13.98;71.61;95105.47;5055875;28;20090;-80
2023/09/19 03:26:33;;;;;;;4.65;3.90;;;;;;;13.79;71.92;95096.72;5073532;28;20478;-79
2023/09/19 03:28:58;;;;;;;9.05;3.55;;;;;;;13.88;71.83;95109.91;5055798;28;20028;-80
2023/09/19 03:31:24;;;;;;;5.47;3.55;;;;;;;13.75;72.26;95111.00;5073688;28;20028;-80
2023/09/19 03:33:49;;;;;;;4.97;3.33;;;;;;;13.75;72.32;95121.44;5072284;28;20434;-80
2023/09/19 03:36:14;;;;;;;5.22;3.40;;;;;;;13.47;72.58;95081.34;5071865;28;20033;-80
2023/09/19 03:38:40;;;;;;;4.55;3.15;;;;;;;13.39;72.95;95076.00;5072025;28;20032;-79
2023/09/19 03:41:05;;;;;;;4.78;3.50;;;;;;;13.44;73.50;95104.31;5055514;28;20028;-80
2023/09/19 03:43:34;;;;;;;5.57;3.53;;;;;;;13.40;73.85;95101.97;5071915;28;20028;-79
2023/09/19 03:46:04;;;;;;;4.30;3.63;;;;;;;13.38;74.03;95103.88;5054982;28;20037;-80
2023/09/19 03:48:30;;;;;;;5.40;3.58;;;;;;;13.53;73.70;95106.06;5055710;28;20032;-81
2023/09/19 03:50:57;;;;;;;6.50;3.65;;;;;;;13.47;73.68;95090.97;5055582;28;20049;-80
2023/09/19 03:53:22;;;;;;;4.75;3.63;;;;;;;13.48;73.59;95101.25;5055376;28;20060;-79
2023/09/19 03:55:48;;;;;;;5.45;3.60;;;;;;;13.53;73.35;95098.25;5071772;28;20024;-79
2023/09/19 03:58:13;;;;;;;4.30;3.75;;;;;;;13.56;73.24;95111.84;5038590;28;20025;-80
2023/09/19 04:00:39;;;;;;;3.83;3.20;;;;;;;13.78;72.93;95110.72;5055086;28;20086;-80
2023/09/19 04:03:06;;;;;;;4.82;3.55;;;;;;;13.74;73.17;95119.81;5071551;28;20028;-79
2023/09/19 04:05:32;;;;;;;5.35;3.53;;;;;;;13.70;73.04;95115.00;5054815;28;20032;-79
2023/09/19 04:07:57;;;;;;;4.88;3.53;;;;;;;13.67;72.85;95117.88;5054768;28;20529;-79
2023/09/19 04:10:23;;;;;;;5.95;3.30;;;;;;;13.70;72.67;95125.44;5038425;28;20294;-79
2023/09/19 04:12:55;;;;;;;5.38;3.72;;;;;;;13.67;72.56;95113.47;5072569;28;20024;-80
2023/09/19 04:15:22;;;;;;;4.65;3.40;;;;;;;13.92;72.45;95127.75;5054887;28;20032;-79
2023/09/19 04:17:49;;;;;;;5.05;3.60;;;;;;;13.84;72.25;95133.66;5071194;28;20104;-80
2023/09/19 04:20:14;;;;;;;4.20;3.58;;;;;;;13.97;72.18;95135.16;5054938;28;20047;-80
2023/09/19 04:22:40;;;;;;;5.22;3.63;;;;;;;13.99;71.85;95139.28;5054617;28;20306;-80
2023/09/19 04:25:09;;;;;;;5.55;3.50;;;;;;;13.85;72.21;95134.50;5054723;28;20021;-79
2023/09/19 04:27:34;;;;;;;4.95;3.45;;;;;;;13.91;72.23;95135.72;5054814;28;20036;-79
2023/09/19 04:30:00;;;;;;;4.28;3.15;;;;;;;13.69;72.65;95131.63;5071037;28;20024;-79
2023/09/19 04:32:29;;;;;;;5.18;3.67;;;;;;;13.59;73.01;95135.03;5054557;28;20051;-79
2023/09/19 04:34:59;;;;;;;5.40;3.85;;;;;;;13.64;73.16;95140.69;5072542;28;20032;-79
2023/09/19 04:37:25;;;;;;;7.00;3.83;;;;;;;13.50;73.35;95127.22;5072215;28;20029;-79
2023/09/19 04:39:50;;;;;;;4.88;3.60;;;;;;;13.68;73.42;95140.41;5054672;28;20095;-79
2023/09/19 04:42:16;;;;;;;6.50;4.18;;;;;;;13.66;73.52;95137.94;5072242;28;20036;-80
2023/09/19 04:44:42;;;;;;;6.07;4.22;;;;;;;13.60;73.82;95122.84;5054385;28;20037;-79
2023/09/19 04:47:07;;;;;;;6.93;4.07;;;;;;;13.66;73.28;95117.06;5053836;28;20564;-80
2023/09/19 04:49:34;;;;;;;6.03;4.15;;;;;;;13.53;73.67;95108.69;5070620;28;20044;-79
2023/09/19 04:51:59;;;;;;;4.93;3.55;;;;;;;13.66;73.69;95127.50;5037746;28;20036;-79
2023/09/19 04:54:24;;;;;;;4.68;3.60;;;;;;;13.62;73.45;95119.13;5070692;28;20040;-79
2023/09/19 04:56:50;;;;;;;5.65;4.03;;;;;;;13.74;73.53;95127.63;5053927;28;20036;-80
2023/09/19 04:59:15;;;;;;;6.32;4.15;;;;;;;13.73;73.60;95133.00;5053630;28;20040;-80
2023/09/19 05:01:41;;;;;;;6.95;4.68;;;;;;;13.72;73.77;95133.97;5070386;28;20024;-79
2023/09/19 05:04:06;;;;;;;5.95;3.95;;;;;;;13.76;73.24;95117.88;5053709;28;20047;-79
2023/09/19 05:06:33;;;;;;;4.80;3.83;;;;;;;13.76;73.16;95117.88;5036797;28;20090;-79
2023/09/19 05:09:00;;;;;;;5.60;4.07;;;;;;;13.94;72.75;95119.78;5070395;28;20044;-80
2023/09/19 05:11:26;;;;;;;5.20;4.00;;;;;;;13.88;73.03;95125.56;5053879;28;20048;-79
2023/09/19 05:13:52;;;;;;;5.57;4.28;;;;;;;13.90;72.89;95102.72;5053549;28;20032;-79
2023/09/19 05:16:17;;;;;;;7.10;4.10;;;;;;;14.09;72.23;95098.28;5070314;28;20082;-79
2023/09/19 05:18:43;;;;;;;5.18;4.00;;;;;;;14.22;71.77;95108.44;5070149;28;20038;-79
2023/09/19 05:21:08;;;;;;;4.93;4.30;;;;;;;14.25;71.96;95105.53;5070157;28;20028;-80
2023/09/19 05:23:34;;;;;;;5.82;4.05;;;;;;;14.39;71.54;95106.88;5069883;28;20032;-80
2023/09/19 05:25:59;;;;;;;5.47;4.00;;;;;;;14.75;70.13;95115.69;5036670;28;20031;-80
2023/09/19 05:28:25;;;;;;;4.60;4.03;;;;;;;14.81;69.45;95092.53;5069743;28;20078;-80
2023/09/19 05:30:51;;;;;;;6.13;4.00;;;;;;;14.89;70.19;95106.53;5070029;28;20020;-79
2023/09/19 05:33:18;;;;;;;7.10;5.18;;;;;;;15.02;69.79;95108.00;5036554;28;20032;-79
2023/09/19 05:35:43;;;;;;;7.88;5.70;;;;;;;15.12;69.13;95103.50;5037113;28;20470;-79
2023/09/19 05:38:09;;;;;;;8.15;5.43;;;;;;;15.21;69.13;95110.50;5069470;28;20040;-80
2023/09/19 05:40:35;;;;;;;7.88;5.28;;;;;;;15.41;68.36;95106.75;5069823;28;20055;-79
2023/09/19 05:43:01;;;;;;;7.20;5.13;;;;;;;15.55;67.91;95094.94;5035939;28;20521;-79
2023/09/19 05:45:27;;;;;;;7.22;4.88;;;;;;;15.55;67.83;95102.78;5053667;28;20402;-79
2023/09/19 05:47:55;;;;;;;7.82;5.00;;;;;;;15.70;67.74;95108.34;5070132;28;20032;-79
2023/09/19 05:50:21;;;;;;;8.05;4.80;;;;;;;15.74;67.26;95090.50;5053514;28;20059;-79
2023/09/19 05:52:53;;;;;;;8.45;4.78;;;;;;;15.99;66.29;95094.13;5053469;28;20036;-79
2023/09/19 05:55:20;;;;;;;5.95;4.13;;;;;;;16.17;66.12;95099.34;5053445;28;20016;-79
2023/09/19 05:57:51;;;;;;;5.40;4.38;;;;;;;16.23;65.84;95075.13;5069946;28;20056;-79
2023/09/19 06:00:17;;;;;;;4.93;4.07;;;;;;;16.43;64.65;95081.78;5053555;28;20024;-80
2023/09/19 06:02:44;;;;;;;7.15;4.35;;;;;;;16.59;63.03;95056.63;5069651;28;20477;-79
2023/09/19 06:05:10;;;;;;;5.43;3.92;;;;;;;16.94;62.28;95080.06;5071652;28;20437;-80
2023/09/19 06:07:37;;;;;;;5.25;3.70;;;;;;;17.01;61.86;95079.44;5036545;28;20111;-79
2023/09/19 06:10:07;;;;;;;5.18;3.55;;;;;;;16.96;61.14;95064.97;5071019;28;20032;-80
2023/09/19 06:12:33;;;;;;;4.43;3.33;;;;;;;17.19;60.63;95073.06;5036803;28;20029;-79
2023/09/19 06:14:59;;;;;;;4.05;3.40;;;;;;;16.97;61.30;95069.25;5053128;28;20094;-79
2023/09/19 06:17:26;;;;;;;4.75;3.45;;;;;;;16.71;62.06;95071.91;5053325;28;20498;-79
2023/09/19 06:19:52;;;;;;;4.25;3.63;;;;;;;16.71;62.31;95073.72;5033130;28;20072;-78
2023/09/19 06:22:20;;;;;;;6.85;3.67;;;;;;;16.63;62.11;95055.31;5016596;28;20438;-80
2023/09/19 06:24:47;;;;;;;8.13;3.90;;;;;;;16.73;62.32;95072.56;5047460;28;20128;-79
2023/09/19 06:27:13;;;;;;;6.47;3.75;;;;;;;16.65;62.21;95059.44;5033251;28;20020;-78
2023/09/19 06:29:38;;;;;;;4.47;3.97;;;;;;;16.94;62.12;95074.81;5066124;28;20033;-79
2023/09/19 06:32:08;;;;;;;4.93;3.72;;;;;;;17.05;62.28;95065.00;5070713;28;20085;-78
2023/09/19 06:34:34;;;;;;;5.03;3.92;;;;;;;16.95;61.95;95062.53;5052807;28;20037;-79
2023/09/19 06:36:59;;;;;;;7.72;4.20;;;;;;;17.15;61.47;95068.31;5053169;28;20024;-80
2023/09/19 06:39:25;;;;;;;6.70;4.50;;;;;;;17.15;61.69;95063.88;5069553;28;20016;-79
2023/09/19 06:41:53;;;;;;;8.35;4.43;;;;;;;17.24;61.11;95072.56;5069622;28;20459;-79
2023/09/19 06:44:20;;;;;;;6.38;4.18;;;;;;;17.54;60.55;95073.75;5053101;28;20406;-80
2023/09/19 06:46:49;;;;;;;9.25;4.75;;;;;;;17.77;59.94;95070.47;5053460;28;20053;-79
2023/09/19 06:49:15;;;;;;;5.50;4.22;;;;;;;17.65;61.45;95070.00;5069181;28;20154;-79
2023/09/19 06:51:42;;;;;;;9.63;4.97;;;;;;;17.63;60.46;95066.69;5053269;28;20128;-79
2023/09/19 06:54:08;;;;;;;6.80;4.10;;;;;;;17.58;60.89;95066.41;5054027;28;20067;-79
2023/09/19 06:56:34;;;;;;;7.78;4.40;;;;;;;17.81;61.02;95082.34;5073503;28;20036;-81
2023/09/19 06:59:00;;;;;;;8.13;4.25;;;;;;;17.71;61.01;95082.47;5056552;28;20128;-80
2023/09/19 07:01:26;;;;;;;8.88;4.07;;;;;;;18.00;59.80;95086.44;5056692;28;20032;-80
2023/09/19 07:03:53;;;;;;;6.78;4.32;;;;;;;18.11;59.86;95078.22;5043059;28;20040;-80
2023/09/19 07:06:18;;;;;;;5.68;3.90;;;;;;;17.65;60.46;95080.50;5036686;28;20029;-79
2023/09/19 07:08:45;;;;;;;5.85;4.07;;;;;;;17.97;59.73;95076.22;5025641;28;20036;-79
2023/09/19 07:11:12;;;;;;;6.22;3.45;;;;;;;17.80;59.33;95078.91;5069758;28;20110;-80
2023/09/19 07:13:38;;;;;;;5.55;3.60;;;;;;;18.09;58.37;95085.44;5048286;28;20037;-79
2023/09/19 07:16:03;;;;;;;6.50;3.30;;;;;;;17.98;59.16;95085.78;5053214;28;20087;-79
2023/09/19 07:18:29;;;;;;;4.55;3.88;;;;;;;17.71;59.56;95066.69;5020080;28;20029;-79
2023/09/19 07:21:01;;;;;;;4.90;3.63;;;;;;;17.86;59.91;95090.56;5052926;28;20035;-79
2023/09/19 07:23:26;;;;;;;5.22;3.88;;;;;;;18.22;58.98;95088.38;5052713;28;20029;-79
2023/09/19 07:25:52;;;;;;;6.20;3.42;;;;;;;18.07;59.16;95084.78;5036331;28;20036;-79
2023/09/19 07:28:18;;;;;;;5.15;3.65;;;;;;;18.14;58.86;95090.22;5036177;28;20057;-79
2023/09/19 07:30:43;;;;;;;6.60;4.00;;;;;;;18.31;59.25;95079.47;5036057;28;20028;-79
2023/09/19 07:33:11;;;;;;;5.15;3.58;;;;;;;18.43;58.09;95074.69;5019348;28;20028;-79
2023/09/19 07:35:39;;;;;;;4.75;3.30;;;;;;;18.55;58.21;95075.13;5052780;28;20021;-79
2023/09/19 07:38:05;;;;;;;5.03;3.40;;;;;;;18.46;57.65;95084.03;5036382;28;20037;-79
2023/09/19 07:40:30;;;;;;;5.05;3.50;;;;;;;18.45;58.23;95085.03;5019761;28;20021;-79
2023/09/19 07:42:56;;;;;;;5.82;3.53;;;;;;;18.65;57.46;95094.16;5052404;28;20040;-79
2023/09/19 07:45:22;;;;;;;4.90;3.30;;;;;;;18.92;57.27;95086.88;5036056;28;20287;-79
2023/09/19 07:47:48;;;;;;;5.43;3.28;;;;;;;19.35;54.58;95090.72;5019542;28;20036;-80
2023/09/19 07:50:16;;;;;;;6.95;3.30;;;;;;;19.45;54.57;95090.53;5052129;28;20045;-79
2023/09/19 07:52:42;;;;;;;5.47;3.30;;;;;;;19.64;53.27;95091.88;5019305;28;20135;-79
2023/09/19 07:55:09;;;;;;;4.50;3.15;;;;;;;19.59;55.16;95089.75;5035875;28;20094;-79
2023/09/19 07:57:37;;;;;;;5.60;3.53;;;;;;;19.41;55.78;95086.59;5035844;28;20025;-79
2023/09/19 08:00:07;;;;;;;5.43;3.40;;;;;;;19.37;55.33;95090.56;5018671;28;20155;-79
2023/09/19 08:02:42;;;;;;;5.68;3.30;;;;;;;19.13;55.37;95086.25;5051902;28;20025;-79
2023/09/19 08:05:11;;;;;;;5.50;3.55;;;;;;;19.15;55.56;95095.63;5034902;28;20061;-80
2023/09/19 08:07:40;;;;;;;4.32;3.50;;;;;;;19.20;55.81;95092.50;5035556;28;20036;-79
2023/09/19 08:10:15;;;;;;;5.75;3.70;;;;;;;19.16;55.60;95083.28;5051805;28;20103;-79
2023/09/19 08:12:48;;;;;;;6.18;3.40;;;;;;;19.71;53.84;95098.09;5036605;28;20529;-80
2023/09/19 08:15:19;;;;;;;5.35;3.65;;;;;;;19.78;53.51;95092.94;5020506;28;20025;-79
2023/09/19 08:17:44;;;;;;;6.40;3.80;;;;;;;19.74;54.70;95092.47;5018863;28;20053;-79
2023/09/19 08:20:16;;;;;;;5.78;3.38;;;;;;;20.09;52.80;95085.75;5018523;28;20423;-79
2023/09/19 08:22:52;;;;;;;5.43;3.58;;;;;;;19.44;53.91;95078.31;5020095;28;20499;-79
2023/09/19 08:25:18;;;;;;;4.32;3.13;;;;;;;19.62;54.32;95064.88;5036601;28;20025;-79
2023/09/19 08:27:48;;;;;;;4.20;3.47;;;;;;;19.41;54.39;95071.59;5018328;28;20381;-80
2023/09/19 08:30:23;;;;;;;4.93;3.40;;;;;;;19.70;53.90;95071.94;5018828;28;20495;-78
2023/09/19 08:32:51;;;;;;;4.78;3.10;;;;;;;19.66;54.27;95046.91;5052948;28;20271;-79
2023/09/19 08:35:17;;;;;;;5.28;3.10;;;;;;;19.57;53.85;95060.13;5072834;28;20115;-79
2023/09/19 08:37:45;;;;;;;4.43;3.22;;;;;;;19.43;54.92;95055.63;5038060;28;20484;-79
2023/09/19 08:40:10;;;;;;;5.97;3.35;;;;;;;19.48;54.68;95042.75;5054967;28;20158;-79
2023/09/19 08:42:55;;;;;;;6.70;3.65;;;;;;;19.79;54.29;95057.69;5071174;28;20024;-79
2023/09/19 08:45:22;;;;;;;4.65;3.50;;;;;;;19.67;54.42;95059.94;5071112;28;20020;-79
2023/09/19 08:48:14;;;;;;;4.32;3.30;;;;;;;19.68;54.04;95056.28;5038188;28;20032;-79
2023/09/19 08:50:45;;;;;;;4.78;3.40;;;;;;;19.81;54.35;95060.97;5070827;28;20041;-79
2023/09/19 08:53:12;;;;;;;6.03;3.60;;;;;;;20.05;53.87;95058.09;5054744;28;20120;-78
2023/09/19 08:55:37;;;;;;;4.95;3.35;;;;;;;20.15;53.30;95063.13;5054588;28;20040;-79
2023/09/19 08:58:08;;;;;;;4.57;3.40;;;;;;;20.06;53.25;95045.75;5037347;28;20028;-79
2023/09/19 09:00:33;;;;;;;6.22;3.15;;;;;;;19.97;54.33;95034.44;5054463;28;20085;-78
2023/09/19 09:02:59;;;;;;;5.07;3.95;;;;;;;20.12;54.04;95049.50;5054157;28;20036;-79
2023/09/19 09:05:24;;;;;;;6.35;3.50;;;;;;;20.13;53.45;95059.84;5054244;28;20074;-79
2023/09/19 09:07:56;;;;;;;7.05;3.53;;;;;;;20.30;52.99;95034.13;5053996;28;20067;-79
2023/09/19 09:10:22;;;;;;;5.70;3.42;;;;;;;20.41;53.26;95041.56;5054892;28;20587;-79
2023/09/19 09:12:52;;;;;;;4.50;3.55;;;;;;;20.62;52.54;95040.88;5054218;28;20036;-79
2023/09/19 09:15:22;;;;;;;5.03;3.30;;;;;;;20.43;53.22;95022.94;5070783;28;20417;-79
2023/09/19 09:17:48;;;;;;;5.07;3.57;;;;;;;20.40;52.81;95020.66;5037351;28;20071;-80
2023/09/19 09:20:14;;;;;;;6.07;3.95;;;;;;;20.52;53.27;95029.75;5053809;28;20035;-79
2023/09/19 09:22:50;;;;;;;6.32;3.67;;;;;;;20.61;53.28;95025.22;5070279;28;20024;-79
2023/09/19 09:25:18;;;;;;;5.63;3.80;;;;;;;20.54;54.01;95019.88;5055344;28;20034;-79
2023/09/19 09:27:44;;;;;;;3.80;2.97;;;;;;;20.72;53.55;95022.09;5054003;28;20043;-80
2023/09/19 09:30:12;;;;;;;5.07;3.30;;;;;;;20.70;53.33;95017.03;5053891;28;20028;-79
2023/09/19 09:32:39;;;;;;;5.20;3.47;;;;;;;20.68;53.79;95026.13;5071569;28;20033;-79
2023/09/19 09:35:09;;;;;;;5.57;3.40;;;;;;;20.65;53.85;95011.47;5054316;28;20024;-79
2023/09/19 09:37:38;;;;;;;6.82;3.40;;;;;;;20.67;53.99;95021.84;5054483;28;20045;-79
2023/09/19 09:42:41;;;;;;;5.90;3.20;;;;;;;20.85;52.18;95005.63;5070207;28;20029;-79
2023/09/19 09:47:58;;;;;;;8.13;4.28;;;;;;;21.23;51.26;95008.03;5055372;28;20052;-79
2023/09/19 09:50:55;;;;;;;5.90;3.35;;;;;;;21.40;51.10;95004.19;5070227;28;20048;-80
2023/09/19 09:53:34;;;;;;;6.63;3.53;;;;;;;21.41;51.58;95004.00;5057368;28;20112;-80
2023/09/19 09:56:07;;;;;;;4.25;3.00;;;;;;;21.12;50.58;95001.47;5055241;28;20028;-79
2023/09/19 09:58:35;;;;;;;6.93;3.10;;;;;;;21.64;50.41;94992.41;5070099;28;20490;-79
2023/09/19 10:01:08;;;;;;;3.70;3.20;;;;;;;21.62;50.51;94987.31;5053832;28;20025;-79
2023/09/19 10:03:41;;;;;;;3.38;2.88;;;;;;;21.69;50.44;94987.34;5054123;28;20066;-79
2023/09/19 10:09:11;;;;;;;4.00;2.90;;;;;;;21.90;49.40;94980.38;5055221;28;20461;-80
2023/09/19 10:11:44;;;;;;;4.03;3.08;;;;;;;22.11;49.79;94972.38;5053668;28;20074;-79
2023/09/19 10:14:11;;;;;;;6.05;3.15;;;;;;;22.11;49.18;94984.81;5053469;28;20036;-80
2023/09/19 10:16:37;;;;;;;4.18;3.28;;;;;;;22.06;48.91;94990.66;5053532;28;20024;-79
2023/09/19 10:19:02;;;;;;;3.72;3.13;;;;;;;22.05;48.84;94987.22;5036597;28;20071;-80
2023/09/19 10:21:29;;;;;;;6.50;3.10;;;;;;;22.08;49.26;94976.25;5069738;28;20025;-80
2023/09/19 10:23:58;;;;;;;4.00;2.90;;;;;;;22.23;47.91;94962.94;5069666;28;20036;-79
2023/09/19 10:26:24;;;;;;;4.18;3.28;;;;;;;22.40;46.90;94957.31;5053582;28;20575;-79
2023/09/19 10:28:50;;;;;;;4.28;3.42;;;;;;;22.36;48.33;94974.59;5037460;28;20033;-79
2023/09/19 10:31:19;;;;;;;5.85;3.40;;;;;;;22.19;48.07;94963.53;5040368;28;20039;-79
2023/09/19 10:33:45;;;;;;;8.97;3.20;;;;;;;22.50;48.35;94974.47;5040760;28;20036;-80
2023/09/19 10:36:12;;;;;;;5.78;3.40;;;;;;;22.72;46.41;94977.00;5057043;28;20380;-79
2023/09/19 10:38:37;;;;;;;4.80;2.90;;;;;;;22.61;46.84;94962.50;5041992;28;20036;-79
2023/09/19 10:41:02;;;;;;;11.25;3.40;;;;;;;22.48;47.20;94970.38;5036755;28;20032;-79
2023/09/19 10:43:32;;;;;;;4.97;3.25;;;;;;;22.39;47.95;94958.31;5040294;28;20029;-80
2023/09/19 10:46:01;;;;;;;3.92;3.10;;;;;;;22.39;48.15;94953.84;5036868;28;20033;-79
2023/09/19 10:48:28;;;;;;;6.97;3.13;;;;;;;22.57;46.87;94926.03;5036859;28;20037;-80
2023/09/19 10:51:13;;;;;;;4.35;3.20;;;;;;;22.95;47.82;94958.13;5036759;28;20531;-79
2023/09/19 10:53:46;;;;;;;3.92;3.08;;;;;;;22.90;48.04;94948.13;5053026;28;20413;-79
2023/09/19 10:56:17;;;;;;;4.65;3.13;;;;;;;22.99;47.55;94956.75;5036891;28;20111;-79
2023/09/19 10:58:44;;;;;;;6.35;4.68;;;;;;;23.12;47.19;94935.59;5021132;28;20044;-80
2023/09/19 11:01:12;;;;;;;4.72;3.38;;;;;;;23.19;47.38;94951.47;5054598;28;20032;-80
2023/09/19 11:03:43;;;;;;;6.20;3.80;;;;;;;23.38;46.92;94944.56;5053090;28;20040;-79
2023/09/19 11:06:16;;;;;;;3.65;3.10;;;;;;;23.21;47.14;94949.44;5021431;28;20511;-79
2023/09/19 11:08:51;;;;;;;4.32;2.95;;;;;;;23.43;46.27;94944.78;5052945;28;20036;-79
2023/09/19 11:11:42;;;;;;;3.95;3.10;;;;;;;23.45;46.49;94953.31;5053098;28;20029;-78
2023/09/19 11:14:19;;;;;;;5.10;3.55;;;;;;;23.35;46.93;94939.69;5053866;28;20246;-79
2023/09/19 11:17:07;;;;;;;4.00;3.38;;;;;;;23.17;46.07;94942.91;5053093;28;20043;-79
2023/09/19 11:25:30;;;;;;;4.00;3.40;;;;;;;23.53;46.16;94928.47;5054574;28;20033;-79
2023/09/19 11:28:26;;;;;;;;;;;;;;;23.18;46.18;94934.78;5052901;28;20404;-79
2023/09/19 11:30:55;;;;;;;5.43;3.40;;;;;;;23.36;45.75;94926.22;5053716;28;20330;-79
2023/09/19 11:33:33;;;;;;;5.55;3.42;;;;;;;23.48;44.99;94925.59;5020334;28;20426;-79
2023/09/19 11:36:15;;;;;;;3.58;3.08;;;;;;;23.47;45.91;94914.19;5052804;28;20388;-79
2023/09/19 11:39:08;;;;;;;5.60;3.53;;;;;;;23.41;45.40;94913.16;5029902;28;20466;-79
2023/09/19 11:41:37;;;;;;;7.00;3.53;;;;;;;23.29;46.37;94906.03;5051393;28;20040;-79
2023/09/19 11:44:04;;;;;;;5.32;3.50;;;;;;;23.45;46.47;94910.91;5027254;28;20029;-79
2023/09/19 11:46:51;;;;;;;3.83;3.25;;;;;;;23.50;47.55;94905.81;5052079;28;20047;-79
2023/09/19 11:49:20;;;;;;;5.10;3.53;;;;;;;23.58;45.10;94896.84;5051821;28;20083;-79
2023/09/19 11:51:47;;;;;;;4.78;3.45;;;;;;;23.70;45.04;94889.09;5052626;28;20029;-78
2023/09/19 11:54:17;;;;;;;4.70;3.67;;;;;;;23.94;45.31;94885.81;5052118;28;20050;-78
2023/09/19 11:56:43;;;;;;;;;;;;;;;23.96;44.28;94878.47;5037005;28;20025;-79